createdAt,value
2023-05-17T00:00:02.180Z,8.02
2023-05-17T00:01:02.144Z,8.01
2023-05-17T00:02:02.040Z,8.01
2023-05-17T00:03:02.079Z,8.01
2023-05-17T00:04:01.897Z,8.02
2023-05-17T00:05:01.984Z,8.02
2023-05-17T00:06:02.872Z,8.02
2023-05-17T00:07:01.710Z,8.05
2023-05-17T00:08:01.634Z,8.05
2023-05-17T00:09:01.589Z,8.05
2023-05-17T00:10:01.541Z,8.04
2023-05-17T00:11:01.490Z,8.01
2023-05-17T00:12:01.389Z,8.01
2023-05-17T00:13:01.353Z,8.05
2023-05-17T00:14:01.301Z,8.04
2023-05-17T00:15:01.179Z,8.07
2023-05-17T00:16:01.155Z,8.07
2023-05-17T00:17:01.101Z,8.05
2023-05-17T00:18:01.154Z,8.08
2023-05-17T00:19:01.047Z,8.08
2023-05-17T00:20:00.882Z,8.05
2023-05-17T00:21:01.012Z,8.08
2023-05-17T00:22:01.658Z,8.07
2023-05-17T00:23:00.727Z,8.10
2023-05-17T00:24:00.709Z,8.12
2023-05-17T00:25:00.605Z,8.11
2023-05-17T00:26:00.525Z,8.10
2023-05-17T00:27:00.512Z,8.11
2023-05-17T00:28:00.381Z,8.12
2023-05-17T00:29:00.321Z,8.12
2023-05-17T00:30:00.319Z,8.12
2023-05-17T00:31:00.195Z,8.16
2023-05-17T00:32:00.162Z,8.18
2023-05-17T00:33:00.112Z,8.20
2023-05-17T00:34:00.033Z,8.18
2023-05-17T00:34:59.965Z,8.19
2023-05-17T00:35:59.937Z,8.18
2023-05-17T00:36:59.800Z,8.16
2023-05-17T00:37:59.707Z,8.19
2023-05-17T00:38:59.623Z,8.19
2023-05-17T00:39:59.570Z,8.22
2023-05-17T00:40:59.583Z,8.25
2023-05-17T00:41:59.553Z,8.28
2023-05-17T00:42:59.426Z,8.26
2023-05-17T00:43:59.366Z,8.25
2023-05-17T00:44:59.326Z,8.26
2023-05-17T00:45:59.239Z,8.28
2023-05-17T00:46:59.286Z,8.29
2023-05-17T00:47:59.196Z,8.28
2023-05-17T00:48:59.052Z,8.26
2023-05-17T00:49:58.992Z,8.28
2023-05-17T00:50:58.926Z,8.26
2023-05-17T00:51:59.567Z,8.30
2023-05-17T00:52:58.871Z,8.28
2023-05-17T00:53:58.758Z,8.30
2023-05-17T00:54:59.800Z,8.34
2023-05-17T00:55:59.566Z,8.33
2023-05-17T00:56:58.560Z,8.34
2023-05-17T00:57:58.489Z,8.34
2023-05-17T00:58:58.421Z,8.33
2023-05-17T00:59:58.380Z,8.29
2023-05-17T01:00:58.357Z,8.26
2023-05-17T01:01:58.305Z,8.25
2023-05-17T01:02:58.263Z,8.25
2023-05-17T01:03:58.203Z,8.25
2023-05-17T01:04:58.215Z,8.22
2023-05-17T01:05:58.058Z,8.19
2023-05-17T01:06:57.975Z,8.18
2023-05-17T01:07:57.857Z,8.16
2023-05-17T01:08:57.811Z,8.16
2023-05-17T01:09:57.746Z,8.16
2023-05-17T01:10:57.664Z,8.10
2023-05-17T01:11:57.630Z,8.07
2023-05-17T01:12:58.112Z,8.02
2023-05-17T01:13:57.532Z,8.00
2023-05-17T01:14:57.405Z,7.95
2023-05-17T01:15:57.367Z,7.95
2023-05-17T01:16:57.284Z,7.92
2023-05-17T01:17:57.370Z,7.90
2023-05-17T01:18:57.266Z,7.90
2023-05-17T01:19:57.321Z,7.95
2023-05-17T01:20:57.055Z,7.92
2023-05-17T01:21:56.939Z,7.90
2023-05-17T01:22:56.896Z,7.93
2023-05-17T01:23:56.831Z,7.92
2023-05-17T01:24:56.781Z,7.87
2023-05-17T01:25:56.700Z,7.83
2023-05-17T01:26:56.649Z,7.86
2023-05-17T01:27:56.620Z,7.83
2023-05-17T01:28:56.566Z,7.77
2023-05-17T01:29:56.502Z,7.79
2023-05-17T01:30:56.398Z,7.82
2023-05-17T01:31:56.370Z,7.80
2023-05-17T01:32:56.350Z,7.77
2023-05-17T01:33:56.298Z,7.74
2023-05-17T01:34:56.139Z,7.75
2023-05-17T01:35:56.116Z,7.80
2023-05-17T01:36:56.309Z,7.77
2023-05-17T01:37:55.998Z,7.74
2023-05-17T01:38:55.897Z,7.71
2023-05-17T01:39:55.840Z,7.71
2023-05-17T01:40:56.267Z,7.67
2023-05-17T01:41:55.759Z,7.61
2023-05-17T01:42:55.662Z,7.57
2023-05-17T01:43:56.629Z,7.53
2023-05-17T01:44:55.497Z,7.55
2023-05-17T01:45:55.416Z,7.60
2023-05-17T01:46:56.067Z,7.58
2023-05-17T01:47:55.324Z,7.55
2023-05-17T01:48:55.308Z,7.52
2023-05-17T01:49:55.142Z,7.50
2023-05-17T01:50:55.164Z,7.50
2023-05-17T01:51:55.242Z,7.49
2023-05-17T01:52:54.941Z,7.48
2023-05-17T01:53:54.908Z,7.49
2023-05-17T01:54:54.832Z,7.52
2023-05-17T01:55:54.802Z,7.53
2023-05-17T01:56:54.813Z,7.53
2023-05-17T01:57:54.799Z,7.49
2023-05-17T01:58:56.093Z,7.42
2023-05-17T01:59:54.602Z,7.35
2023-05-17T02:00:54.533Z,7.31
2023-05-17T02:01:54.447Z,7.27
2023-05-17T02:02:56.302Z,7.24
2023-05-17T02:03:54.361Z,7.21
2023-05-17T02:04:54.312Z,7.23
2023-05-17T02:05:54.211Z,7.21
2023-05-17T02:06:54.154Z,7.16
2023-05-17T02:07:54.101Z,7.17
2023-05-17T02:08:54.084Z,7.23
2023-05-17T02:09:53.931Z,7.21
2023-05-17T02:10:53.937Z,7.17
2023-05-17T02:11:53.840Z,7.17
2023-05-17T02:12:53.768Z,7.15
2023-05-17T02:13:53.676Z,7.12
2023-05-17T02:14:53.655Z,7.10
2023-05-17T02:15:53.635Z,7.07
2023-05-17T02:16:53.468Z,7.02
2023-05-17T02:17:53.536Z,6.97
2023-05-17T02:18:54.179Z,6.94
2023-05-17T02:19:53.305Z,6.89
2023-05-17T02:20:53.236Z,6.88
2023-05-17T02:21:53.235Z,6.87
2023-05-17T02:22:53.136Z,6.87
2023-05-17T02:23:53.066Z,6.85
2023-05-17T02:24:52.984Z,6.85
2023-05-17T02:25:53.561Z,6.85
2023-05-17T02:26:52.790Z,6.85
2023-05-17T02:27:52.862Z,6.85
2023-05-17T02:28:52.729Z,6.87
2023-05-17T02:29:52.673Z,6.88
2023-05-17T02:30:52.621Z,6.89
2023-05-17T02:31:52.598Z,6.89
2023-05-17T02:32:52.701Z,6.91
2023-05-17T02:33:52.600Z,6.92
2023-05-17T02:34:52.374Z,6.92
2023-05-17T02:35:52.294Z,6.94
2023-05-17T02:36:52.257Z,6.94
2023-05-17T02:37:52.155Z,6.94
2023-05-17T02:38:52.101Z,6.97
2023-05-17T02:39:52.066Z,6.95
2023-05-17T02:40:52.011Z,6.97
2023-05-17T02:41:51.945Z,6.97
2023-05-17T02:42:51.911Z,6.99
2023-05-17T02:43:51.845Z,6.97
2023-05-17T02:44:51.744Z,6.97
2023-05-17T02:45:52.554Z,6.98
2023-05-17T02:46:51.650Z,6.98
2023-05-17T02:47:51.592Z,6.98
2023-05-17T02:48:51.496Z,6.98
2023-05-17T02:49:51.392Z,6.99
2023-05-17T02:50:51.377Z,6.98
2023-05-17T02:51:51.280Z,6.98
2023-05-17T02:52:51.225Z,6.98
2023-05-17T02:53:51.148Z,6.98
2023-05-17T02:54:51.105Z,7.06
2023-05-17T02:55:51.038Z,7.07
2023-05-17T02:56:50.954Z,7.07
2023-05-17T02:57:50.873Z,7.07
2023-05-17T02:58:50.829Z,7.09
2023-05-17T02:59:50.703Z,7.09
2023-05-17T03:00:50.644Z,7.09
2023-05-17T03:01:50.593Z,7.10
2023-05-17T03:02:50.636Z,7.10
2023-05-17T03:03:50.583Z,7.10
2023-05-17T03:04:50.448Z,7.12
2023-05-17T03:05:50.405Z,7.12
2023-05-17T03:06:50.272Z,7.15
2023-05-17T03:07:50.194Z,7.16
2023-05-17T03:08:50.173Z,7.16
2023-05-17T03:09:50.057Z,7.16
2023-05-17T03:10:49.997Z,7.17
2023-05-17T03:11:49.999Z,7.16
2023-05-17T03:12:49.964Z,7.15
2023-05-17T03:13:49.814Z,7.16
2023-05-17T03:14:49.817Z,7.16
2023-05-17T03:15:49.726Z,7.16
2023-05-17T03:16:49.708Z,7.16
2023-05-17T03:17:49.657Z,7.15
2023-05-17T03:18:49.751Z,7.17
2023-05-17T03:19:49.567Z,7.17
2023-05-17T03:20:49.398Z,7.20
2023-05-17T03:21:49.390Z,7.20
2023-05-17T03:22:49.261Z,7.16
2023-05-17T03:23:49.238Z,7.17
2023-05-17T03:24:49.140Z,7.17
2023-05-17T03:25:49.074Z,7.20
2023-05-17T03:26:49.005Z,7.20
2023-05-17T03:27:48.997Z,7.17
2023-05-17T03:28:48.987Z,7.16
2023-05-17T03:29:48.886Z,7.15
2023-05-17T03:30:48.851Z,7.15
2023-05-17T03:31:49.264Z,7.13
2023-05-17T03:32:48.672Z,7.13
2023-05-17T03:33:48.724Z,7.13
2023-05-17T03:34:48.558Z,7.16
2023-05-17T03:35:48.488Z,7.16
2023-05-17T03:36:48.395Z,7.17
2023-05-17T03:37:48.332Z,7.20
2023-05-17T03:38:48.239Z,7.23
2023-05-17T03:39:48.221Z,7.25
2023-05-17T03:40:48.110Z,7.25
2023-05-17T03:41:48.104Z,7.28
2023-05-17T03:42:47.966Z,7.31
2023-05-17T03:43:48.102Z,7.32
2023-05-17T03:44:47.895Z,7.37
2023-05-17T03:45:47.844Z,7.40
2023-05-17T03:46:47.764Z,7.40
2023-05-17T03:47:47.728Z,7.43
2023-05-17T03:48:47.670Z,7.40
2023-05-17T03:49:47.825Z,7.43
2023-05-17T03:50:47.515Z,7.46
2023-05-17T03:51:47.446Z,7.46
2023-05-17T03:52:47.385Z,7.48
2023-05-17T03:53:47.335Z,7.49
2023-05-17T03:54:48.354Z,7.50
2023-05-17T03:55:47.206Z,7.52
2023-05-17T03:56:47.171Z,7.55
2023-05-17T03:57:47.051Z,7.55
2023-05-17T03:58:46.979Z,7.57
2023-05-17T03:59:46.942Z,7.61
2023-05-17T04:00:46.881Z,7.63
2023-05-17T04:01:46.878Z,7.63
2023-05-17T04:02:46.766Z,7.61
2023-05-17T04:03:46.782Z,7.61
2023-05-17T04:04:46.607Z,7.63
2023-05-17T04:05:46.601Z,7.68
2023-05-17T04:06:46.545Z,7.67
2023-05-17T04:07:46.415Z,7.69
2023-05-17T04:08:46.410Z,7.71
2023-05-17T04:09:46.318Z,7.72
2023-05-17T04:10:46.212Z,7.72
2023-05-17T04:11:46.206Z,7.71
2023-05-17T04:12:46.127Z,7.69
2023-05-17T04:13:46.066Z,7.69
2023-05-17T04:14:45.971Z,7.69
2023-05-17T04:15:45.905Z,7.68
2023-05-17T04:16:45.855Z,7.69
2023-05-17T04:17:45.830Z,7.71
2023-05-17T04:18:45.957Z,7.72
2023-05-17T04:19:45.692Z,7.72
2023-05-17T04:20:45.614Z,7.75
2023-05-17T04:21:45.557Z,7.74
2023-05-17T04:22:45.471Z,7.77
2023-05-17T04:23:45.395Z,7.80
2023-05-17T04:24:45.371Z,7.85
2023-05-17T04:25:45.343Z,7.87
2023-05-17T04:26:45.287Z,7.90
2023-05-17T04:27:45.180Z,7.92
2023-05-17T04:28:45.125Z,7.97
2023-05-17T04:29:45.074Z,8.00
2023-05-17T04:30:44.953Z,8.02
2023-05-17T04:31:44.953Z,8.05
2023-05-17T04:32:44.869Z,8.11
2023-05-17T04:33:44.837Z,8.12
2023-05-17T04:34:44.702Z,8.15
2023-05-17T04:35:44.733Z,8.12
2023-05-17T04:36:44.648Z,8.18
2023-05-17T04:37:44.545Z,8.19
2023-05-17T04:38:44.493Z,8.22
2023-05-17T04:39:44.426Z,8.25
2023-05-17T04:40:44.322Z,8.28
2023-05-17T04:41:44.439Z,8.28
2023-05-17T04:42:44.214Z,8.30
2023-05-17T04:43:44.176Z,8.30
2023-05-17T04:44:44.109Z,8.34
2023-05-17T04:45:44.049Z,8.36
2023-05-17T04:46:44.153Z,8.38
2023-05-17T04:47:43.995Z,8.40
2023-05-17T04:48:43.999Z,8.44
2023-05-17T04:49:43.796Z,8.43
2023-05-17T04:50:43.703Z,8.43
2023-05-17T04:51:43.665Z,8.44
2023-05-17T04:52:43.685Z,8.45
2023-05-17T04:53:43.554Z,8.48
2023-05-17T04:54:43.513Z,8.52
2023-05-17T04:55:43.404Z,8.55
2023-05-17T04:56:43.350Z,8.58
2023-05-17T04:57:43.258Z,8.61
2023-05-17T04:58:43.263Z,8.65
2023-05-17T04:59:43.165Z,8.68
2023-05-17T05:00:43.071Z,8.70
2023-05-17T05:01:43.172Z,8.70
2023-05-17T05:02:42.946Z,8.74
2023-05-17T05:03:43.733Z,8.76
2023-05-17T05:04:42.854Z,8.76
2023-05-17T05:05:42.818Z,8.79
2023-05-17T05:06:42.750Z,8.77
2023-05-17T05:07:42.845Z,8.77
2023-05-17T05:08:42.590Z,8.80
2023-05-17T05:09:42.524Z,8.81
2023-05-17T05:10:42.494Z,8.80
2023-05-17T05:11:42.420Z,8.84
2023-05-17T05:12:42.341Z,8.87
2023-05-17T05:13:42.284Z,8.89
2023-05-17T05:14:42.208Z,8.94
2023-05-17T05:15:42.153Z,8.95
2023-05-17T05:16:42.051Z,8.96
2023-05-17T05:17:42.069Z,8.99
2023-05-17T05:18:42.098Z,9.04
2023-05-17T05:19:41.976Z,9.04
2023-05-17T05:20:41.869Z,9.04
2023-05-17T05:21:41.741Z,9.05
2023-05-17T05:22:41.679Z,9.10
2023-05-17T05:23:41.621Z,9.11
2023-05-17T05:24:41.788Z,9.13
2023-05-17T05:25:42.071Z,9.18
2023-05-17T05:26:42.043Z,9.21
2023-05-17T05:27:41.389Z,9.23
2023-05-17T05:28:41.324Z,9.33
2023-05-17T05:29:41.351Z,9.65
2023-05-17T05:30:41.206Z,9.87
2023-05-17T05:31:41.853Z,10.11
2023-05-17T05:32:41.097Z,10.14
2023-05-17T05:33:41.117Z,10.17
2023-05-17T05:34:40.927Z,10.25
2023-05-17T05:35:40.884Z,10.33
2023-05-17T05:36:40.789Z,10.33
2023-05-17T05:37:40.759Z,10.33
2023-05-17T05:38:40.677Z,10.45
2023-05-17T05:39:40.646Z,10.71
2023-05-17T05:40:40.616Z,10.79
2023-05-17T05:41:40.617Z,10.81
2023-05-17T05:42:40.432Z,10.81
2023-05-17T05:43:40.353Z,10.79
2023-05-17T05:44:40.291Z,10.76
2023-05-17T05:45:40.261Z,10.71
2023-05-17T05:46:40.257Z,10.73
2023-05-17T05:47:40.153Z,10.68
2023-05-17T05:48:40.180Z,10.67
2023-05-17T05:49:41.705Z,10.66
2023-05-17T05:50:39.939Z,10.67
2023-05-17T05:51:39.889Z,10.70
2023-05-17T05:52:39.799Z,10.70
2023-05-17T05:53:39.722Z,10.64
2023-05-17T05:54:39.698Z,10.59
2023-05-17T05:55:39.761Z,10.55
2023-05-17T05:56:39.768Z,10.52
2023-05-17T05:57:39.504Z,10.44
2023-05-17T05:58:39.420Z,10.47
2023-05-17T05:59:39.375Z,10.55
2023-05-17T06:00:39.354Z,10.60
2023-05-17T06:01:39.288Z,10.91
2023-05-17T06:02:39.210Z,11.21
2023-05-17T06:03:39.136Z,11.15
2023-05-17T06:04:45.251Z,11.40
2023-05-17T06:05:39.170Z,12.04
2023-05-17T06:06:39.057Z,12.60
2023-05-17T06:07:38.831Z,12.71
2023-05-17T06:08:38.852Z,13.01
2023-05-17T06:09:38.757Z,12.79
2023-05-17T06:10:38.708Z,12.68
2023-05-17T06:11:39.235Z,13.29
2023-05-17T06:12:38.542Z,13.26
2023-05-17T06:13:38.495Z,13.49
2023-05-17T06:14:38.415Z,13.88
2023-05-17T06:15:38.357Z,13.87
2023-05-17T06:16:38.341Z,14.20
2023-05-17T06:17:38.364Z,14.58
2023-05-17T06:18:38.374Z,14.88
2023-05-17T06:19:38.212Z,15.10
2023-05-17T06:20:38.180Z,15.21
2023-05-17T06:21:37.995Z,15.36
2023-05-17T06:22:37.938Z,15.09
2023-05-17T06:23:37.823Z,15.23
2023-05-17T06:24:37.854Z,15.17
2023-05-17T06:25:38.763Z,15.51
2023-05-17T06:26:37.686Z,15.87
2023-05-17T06:27:37.742Z,16.00
2023-05-17T06:28:37.527Z,16.05
2023-05-17T06:29:37.731Z,16.11
2023-05-17T06:30:37.445Z,15.76
2023-05-17T06:31:37.391Z,16.15
2023-05-17T06:32:37.351Z,16.31
2023-05-17T06:33:37.276Z,16.46
2023-05-17T06:34:37.179Z,16.73
2023-05-17T06:35:51.631Z,16.89
2023-05-17T06:36:38.571Z,16.41
2023-05-17T06:37:37.050Z,16.20
2023-05-17T06:38:37.096Z,15.94
2023-05-17T06:39:36.974Z,16.28
2023-05-17T06:40:37.277Z,15.94
2023-05-17T06:41:36.753Z,15.64
2023-05-17T06:42:37.225Z,15.14
2023-05-17T06:43:37.695Z,14.64
2023-05-17T06:44:36.551Z,14.54
2023-05-17T06:45:36.519Z,15.09
2023-05-17T06:46:36.475Z,15.65
2023-05-17T06:47:36.489Z,16.17
2023-05-17T06:48:36.399Z,15.78
2023-05-17T06:49:36.279Z,15.68
2023-05-17T06:50:36.255Z,16.20
2023-05-17T06:51:36.124Z,16.57
2023-05-17T06:52:36.016Z,16.52
2023-05-17T06:53:35.998Z,16.91
2023-05-17T06:54:35.924Z,16.76
2023-05-17T06:55:35.899Z,16.94
2023-05-17T06:56:35.942Z,16.96
2023-05-17T06:57:35.782Z,16.97
2023-05-17T06:58:35.754Z,17.34
2023-05-17T06:59:35.615Z,17.78
2023-05-17T07:00:35.793Z,18.10
2023-05-17T07:01:35.500Z,17.58
2023-05-17T07:02:35.677Z,17.56
2023-05-17T07:03:35.488Z,17.49
2023-05-17T07:04:35.334Z,17.55
2023-05-17T07:05:35.402Z,17.54
2023-05-17T07:06:35.205Z,17.51
2023-05-17T07:07:36.342Z,17.75
2023-05-17T07:08:35.101Z,18.02
2023-05-17T07:09:35.035Z,18.14
2023-05-17T07:10:34.960Z,18.02
2023-05-17T07:11:35.645Z,17.96
2023-05-17T07:12:34.848Z,17.87
2023-05-17T07:13:34.816Z,17.92
2023-05-17T07:14:34.697Z,17.54
2023-05-17T07:15:34.629Z,16.63
2023-05-17T07:16:34.624Z,15.80
2023-05-17T07:17:35.262Z,15.27
2023-05-17T07:18:34.636Z,14.94
2023-05-17T07:19:34.736Z,14.64
2023-05-17T07:20:34.388Z,14.37
2023-05-17T07:21:34.294Z,14.10
2023-05-17T07:22:34.244Z,13.87
2023-05-17T07:23:34.136Z,13.69
2023-05-17T07:24:34.120Z,13.55
2023-05-17T07:25:34.078Z,13.46
2023-05-17T07:26:33.998Z,13.30
2023-05-17T07:27:34.277Z,13.14
2023-05-17T07:28:35.198Z,13.04
2023-05-17T07:29:33.797Z,12.89
2023-05-17T07:30:33.794Z,12.86
2023-05-17T07:31:33.654Z,12.93
2023-05-17T07:32:33.644Z,12.86
2023-05-17T07:33:33.493Z,12.93
2023-05-17T07:34:33.637Z,13.85
2023-05-17T07:35:33.397Z,14.73
2023-05-17T07:36:33.377Z,15.29
2023-05-17T07:37:33.299Z,15.97
2023-05-17T07:38:33.529Z,16.58
2023-05-17T07:39:33.226Z,17.23
2023-05-17T07:40:33.102Z,17.66
2023-05-17T07:41:33.105Z,16.98
2023-05-17T07:42:32.957Z,16.21
2023-05-17T07:43:32.911Z,15.82
2023-05-17T07:44:32.895Z,15.38
2023-05-17T07:45:32.861Z,14.84
2023-05-17T07:46:32.754Z,14.20
2023-05-17T07:47:33.345Z,13.88
2023-05-17T07:48:32.765Z,13.70
2023-05-17T07:49:32.570Z,13.57
2023-05-17T07:50:32.812Z,13.54
2023-05-17T07:51:34.098Z,13.49
2023-05-17T07:52:32.594Z,13.48
2023-05-17T07:53:34.250Z,13.46
2023-05-17T07:54:32.262Z,13.38
2023-05-17T07:55:35.601Z,13.23
2023-05-17T07:56:32.149Z,13.07
2023-05-17T07:57:33.516Z,12.92
2023-05-17T07:58:33.868Z,12.87
2023-05-17T07:59:31.967Z,12.86
2023-05-17T08:00:31.916Z,12.89
2023-05-17T08:01:31.850Z,12.89
2023-05-17T08:02:31.809Z,12.96
2023-05-17T08:03:31.701Z,13.01
2023-05-17T08:04:31.673Z,13.08
2023-05-17T08:05:35.779Z,13.33
2023-05-17T08:06:31.542Z,13.97
2023-05-17T08:07:31.677Z,14.77
2023-05-17T08:08:31.449Z,14.88
2023-05-17T08:09:32.425Z,14.58
2023-05-17T08:10:32.669Z,14.42
2023-05-17T08:11:36.220Z,14.17
2023-05-17T08:12:48.502Z,13.89
2023-05-17T08:13:31.942Z,13.59
2023-05-17T08:14:31.707Z,13.38
2023-05-17T08:15:31.474Z,13.15
2023-05-17T08:16:30.883Z,12.89
2023-05-17T08:17:30.830Z,12.62
2023-05-17T08:18:30.976Z,12.45
2023-05-17T08:19:30.865Z,12.27
2023-05-17T08:20:30.651Z,12.14
2023-05-17T08:21:30.587Z,12.05
2023-05-17T08:22:30.523Z,12.05
2023-05-17T08:23:30.450Z,12.04
2023-05-17T08:24:30.447Z,12.01
2023-05-17T08:25:31.343Z,11.98
2023-05-17T08:26:30.269Z,11.94
2023-05-17T08:27:30.220Z,11.91
2023-05-17T08:28:30.143Z,11.91
2023-05-17T08:29:30.120Z,11.91
2023-05-17T08:30:30.008Z,11.96
2023-05-17T08:31:29.916Z,12.01
2023-05-17T08:32:31.260Z,12.10
2023-05-17T08:33:29.891Z,12.23
2023-05-17T08:34:29.763Z,12.50
2023-05-17T08:35:29.686Z,12.78
2023-05-17T08:36:29.645Z,12.83
2023-05-17T08:37:30.722Z,12.90
2023-05-17T08:38:29.483Z,13.00
2023-05-17T08:39:30.248Z,13.08
2023-05-17T08:40:29.669Z,13.11
2023-05-17T08:41:29.527Z,13.12
2023-05-17T08:42:30.252Z,13.14
2023-05-17T08:43:29.255Z,13.25
2023-05-17T08:44:29.188Z,13.28
2023-05-17T08:45:29.418Z,13.30
2023-05-17T08:46:29.065Z,13.29
2023-05-17T08:47:29.117Z,13.28
2023-05-17T08:48:28.937Z,13.26
2023-05-17T08:49:28.895Z,13.12
2023-05-17T08:50:29.115Z,13.11
2023-05-17T08:51:28.671Z,13.22
2023-05-17T08:52:28.787Z,13.54
2023-05-17T08:53:28.625Z,13.75
2023-05-17T08:54:28.611Z,14.12
2023-05-17T08:55:29.080Z,14.69
2023-05-17T08:56:28.431Z,15.19
2023-05-17T08:57:28.354Z,15.60
2023-05-17T08:58:28.294Z,15.89
2023-05-17T08:59:28.221Z,16.20
2023-05-17T09:00:28.451Z,16.05
2023-05-17T09:01:29.867Z,15.71
2023-05-17T09:02:28.086Z,15.65
2023-05-17T09:03:28.681Z,15.68
2023-05-17T09:04:27.915Z,15.65
2023-05-17T09:05:28.126Z,15.62
2023-05-17T09:06:27.820Z,15.60
2023-05-17T09:07:27.765Z,15.38
2023-05-17T09:08:27.639Z,15.19
2023-05-17T09:09:27.582Z,14.96
2023-05-17T09:10:27.680Z,14.72
2023-05-17T09:11:27.513Z,14.42
2023-05-17T09:12:27.393Z,14.20
2023-05-17T09:13:27.366Z,13.84
2023-05-17T09:14:28.219Z,13.62
2023-05-17T09:15:27.204Z,13.55
2023-05-17T09:16:27.216Z,13.45
2023-05-17T09:17:30.870Z,13.46
2023-05-17T09:18:27.242Z,13.49
2023-05-17T09:19:27.057Z,13.42
2023-05-17T09:20:27.903Z,13.36
2023-05-17T09:21:27.991Z,13.38
2023-05-17T09:22:26.825Z,13.44
2023-05-17T09:23:26.909Z,13.48
2023-05-17T09:24:26.687Z,13.49
2023-05-17T09:25:26.798Z,13.44
2023-05-17T09:26:26.520Z,13.33
2023-05-17T09:27:26.478Z,13.28
2023-05-17T09:28:26.398Z,13.32
2023-05-17T09:29:26.361Z,13.54
2023-05-17T09:30:26.423Z,13.54
2023-05-17T09:31:27.468Z,13.51
2023-05-17T09:32:28.715Z,13.46
2023-05-17T09:33:26.136Z,13.38
2023-05-17T09:34:26.744Z,13.25
2023-05-17T09:35:26.349Z,13.22
2023-05-17T09:36:25.961Z,13.22
2023-05-17T09:37:25.841Z,13.20
2023-05-17T09:38:25.804Z,13.23
2023-05-17T09:39:25.690Z,13.28
2023-05-17T09:40:25.658Z,13.30
2023-05-17T09:41:25.738Z,13.54
2023-05-17T09:42:25.561Z,13.89
2023-05-17T09:43:25.514Z,14.27
2023-05-17T09:44:25.509Z,14.46
2023-05-17T09:45:25.359Z,14.51
2023-05-17T09:46:25.298Z,14.47
2023-05-17T09:47:25.314Z,14.51
2023-05-17T09:48:25.412Z,14.50
2023-05-17T09:49:25.106Z,14.24
2023-05-17T09:50:26.227Z,14.25
2023-05-17T09:51:25.064Z,14.43
2023-05-17T09:52:24.937Z,14.32
2023-05-17T09:53:24.868Z,14.33
2023-05-17T09:54:24.831Z,14.50
2023-05-17T09:55:25.227Z,14.61
2023-05-17T09:56:24.710Z,14.73
2023-05-17T09:57:24.625Z,14.80
2023-05-17T09:58:24.520Z,14.88
2023-05-17T09:59:24.463Z,14.77
2023-05-17T10:00:24.487Z,14.62
2023-05-17T10:01:24.331Z,14.55
2023-05-17T10:02:24.296Z,14.36
2023-05-17T10:03:24.472Z,14.28
2023-05-17T10:04:24.231Z,14.22
2023-05-17T10:05:24.546Z,14.29
2023-05-17T10:06:43.674Z,14.36
2023-05-17T10:07:24.025Z,14.42
2023-05-17T10:08:23.964Z,14.52
2023-05-17T10:09:23.910Z,14.77
2023-05-17T10:10:23.804Z,14.98
2023-05-17T10:11:23.735Z,15.21
2023-05-17T10:12:24.354Z,15.56
2023-05-17T10:13:23.618Z,15.90
2023-05-17T10:14:24.335Z,16.01
2023-05-17T10:15:23.608Z,16.25
2023-05-17T10:16:24.275Z,16.38
2023-05-17T10:17:23.374Z,16.31
2023-05-17T10:18:23.377Z,16.28
2023-05-17T10:19:23.294Z,16.63
2023-05-17T10:20:24.829Z,16.83
2023-05-17T10:21:23.102Z,16.71
2023-05-17T10:22:24.053Z,16.68
2023-05-17T10:23:23.005Z,16.61
2023-05-17T10:24:22.962Z,16.49
2023-05-17T10:25:24.256Z,16.48
2023-05-17T10:26:22.850Z,16.46
2023-05-17T10:27:22.815Z,16.39
2023-05-17T10:28:22.800Z,16.42
2023-05-17T10:29:22.661Z,16.60
2023-05-17T10:30:23.239Z,16.70
2023-05-17T10:31:22.518Z,16.42
2023-05-17T10:32:22.529Z,16.41
2023-05-17T10:33:22.497Z,16.50
2023-05-17T10:34:22.474Z,16.61
2023-05-17T10:35:22.287Z,16.52
2023-05-17T10:36:22.213Z,16.08
2023-05-17T10:37:22.175Z,15.80
2023-05-17T10:38:26.289Z,15.92
2023-05-17T10:39:22.004Z,15.87
2023-05-17T10:40:21.992Z,15.82
2023-05-17T10:41:21.919Z,15.72
2023-05-17T10:42:21.838Z,16.05
2023-05-17T10:43:21.897Z,16.08
2023-05-17T10:44:21.730Z,16.23
2023-05-17T10:45:21.688Z,16.56
2023-05-17T10:46:21.595Z,16.85
2023-05-17T10:47:21.530Z,17.11
2023-05-17T10:48:21.525Z,17.12
2023-05-17T10:49:24.586Z,16.83
2023-05-17T10:50:21.379Z,16.39
2023-05-17T10:51:21.283Z,15.89
2023-05-17T10:52:21.202Z,15.62
2023-05-17T10:53:21.201Z,15.21
2023-05-17T10:54:21.070Z,14.99
2023-05-17T10:55:21.033Z,14.91
2023-05-17T10:56:21.002Z,14.89
2023-05-17T10:57:20.989Z,14.78
2023-05-17T10:58:21.537Z,14.73
2023-05-17T10:59:20.825Z,14.70
2023-05-17T11:00:21.217Z,14.69
2023-05-17T11:01:21.139Z,14.68
2023-05-17T11:02:20.628Z,14.65
2023-05-17T11:03:20.601Z,14.80
2023-05-17T11:04:20.483Z,14.91
2023-05-17T11:05:20.502Z,15.01
2023-05-17T11:06:24.507Z,15.14
2023-05-17T11:07:20.593Z,15.31
2023-05-17T11:08:21.341Z,15.46
2023-05-17T11:09:20.473Z,15.60
2023-05-17T11:10:21.557Z,15.57
2023-05-17T11:11:20.047Z,15.64
2023-05-17T11:12:20.016Z,15.68
2023-05-17T11:13:19.967Z,15.74
2023-05-17T11:14:19.881Z,15.84
2023-05-17T11:15:19.837Z,15.93
2023-05-17T11:16:19.729Z,15.94
2023-05-17T11:17:19.714Z,15.93
2023-05-17T11:18:30.432Z,15.84
2023-05-17T11:19:19.589Z,15.93
2023-05-17T11:20:19.699Z,16.01
2023-05-17T11:21:19.434Z,16.05
2023-05-17T11:22:19.380Z,16.09
2023-05-17T11:23:19.283Z,16.14
2023-05-17T11:24:20.882Z,16.00
2023-05-17T11:25:19.245Z,15.89
2023-05-17T11:26:19.125Z,15.83
2023-05-17T11:27:19.095Z,15.71
2023-05-17T11:28:19.053Z,15.65
2023-05-17T11:29:18.970Z,15.64
2023-05-17T11:30:18.926Z,15.46
2023-05-17T11:31:18.853Z,15.35
2023-05-17T11:32:18.804Z,15.34
2023-05-17T11:33:29.857Z,15.38
2023-05-17T11:34:18.736Z,15.47
2023-05-17T11:35:18.594Z,15.64
2023-05-17T11:36:18.538Z,15.76
2023-05-17T11:37:18.476Z,15.92
2023-05-17T11:38:18.412Z,16.07
2023-05-17T11:39:18.325Z,16.17
2023-05-17T11:40:18.255Z,16.23
2023-05-17T11:41:26.526Z,16.05
2023-05-17T11:42:18.177Z,15.76
2023-05-17T11:43:19.027Z,15.46
2023-05-17T11:44:18.050Z,15.31
2023-05-17T11:45:17.984Z,15.11
2023-05-17T11:46:17.922Z,15.09
2023-05-17T11:47:17.919Z,15.25
2023-05-17T11:48:17.914Z,15.49
2023-05-17T11:49:33.887Z,15.86
2023-05-17T11:50:17.663Z,16.43
2023-05-17T11:51:18.856Z,16.98
2023-05-17T11:52:18.220Z,17.36
2023-05-17T11:53:17.463Z,17.93
2023-05-17T11:54:17.499Z,18.37
2023-05-17T11:55:17.365Z,18.03
2023-05-17T11:56:17.276Z,17.62
2023-05-17T11:57:17.209Z,17.14
2023-05-17T11:58:17.189Z,16.71
2023-05-17T11:59:17.079Z,16.39
2023-05-17T12:00:17.141Z,16.07
2023-05-17T12:01:16.985Z,15.80
2023-05-17T12:02:16.925Z,16.14
2023-05-17T12:03:17.738Z,16.81
2023-05-17T12:04:16.900Z,17.30
2023-05-17T12:05:16.914Z,17.89
2023-05-17T12:06:16.726Z,18.29
2023-05-17T12:07:16.614Z,18.85
2023-05-17T12:08:16.534Z,18.80
2023-05-17T12:09:16.529Z,18.48
2023-05-17T12:10:16.418Z,19.04
2023-05-17T12:11:16.381Z,19.48
2023-05-17T12:12:16.320Z,19.65
2023-05-17T12:13:17.751Z,20.10
2023-05-17T12:14:16.147Z,20.57
2023-05-17T12:15:16.126Z,20.88
2023-05-17T12:16:18.141Z,20.94
2023-05-17T12:17:16.011Z,20.98
2023-05-17T12:18:15.989Z,21.31
2023-05-17T12:19:16.005Z,21.59
2023-05-17T12:20:16.634Z,21.92
2023-05-17T12:21:15.786Z,22.18
2023-05-17T12:22:15.717Z,22.17
2023-05-17T12:23:15.614Z,22.18
2023-05-17T12:24:15.678Z,22.06
2023-05-17T12:25:15.535Z,22.09
2023-05-17T12:26:15.482Z,22.05
2023-05-17T12:27:15.534Z,22.20
2023-05-17T12:28:15.324Z,22.03
2023-05-17T12:29:15.292Z,22.03
2023-05-17T12:30:15.160Z,22.30
2023-05-17T12:31:15.105Z,22.55
2023-05-17T12:32:15.119Z,22.70
2023-05-17T12:33:15.082Z,22.49
2023-05-17T12:34:14.987Z,21.61
2023-05-17T12:35:14.960Z,20.69
2023-05-17T12:36:14.782Z,20.38
2023-05-17T12:37:14.778Z,19.96
2023-05-17T12:38:15.506Z,19.50
2023-05-17T12:39:14.676Z,18.95
2023-05-17T12:40:14.600Z,18.62
2023-05-17T12:41:14.725Z,18.26
2023-05-17T12:42:14.431Z,17.86
2023-05-17T12:43:14.413Z,17.33
2023-05-17T12:44:15.932Z,17.08
2023-05-17T12:45:14.260Z,16.94
2023-05-17T12:46:14.290Z,16.71
2023-05-17T12:47:14.716Z,16.52
2023-05-17T12:48:14.215Z,16.41
2023-05-17T12:49:14.116Z,16.34
2023-05-17T12:50:13.977Z,16.21
2023-05-17T12:51:13.992Z,16.04
2023-05-17T12:52:13.798Z,15.97
2023-05-17T12:53:15.044Z,15.90
2023-05-17T12:54:14.782Z,15.76
2023-05-17T12:55:13.665Z,15.67
2023-05-17T12:56:13.677Z,15.64
2023-05-17T12:57:13.518Z,15.60
2023-05-17T12:58:13.520Z,15.62
2023-05-17T12:59:13.434Z,15.68
2023-05-17T13:00:13.391Z,15.72
2023-05-17T13:01:13.367Z,15.67
2023-05-17T13:02:13.293Z,15.59